sensor_id;sensor_type;location;lat;lon;timestamp;P1;durP1;ratioP1;P2;durP2;ratioP2
41631;SDS011;37452;51.938;4.624;2023-06-24T00:02:19;2.55;;;1.48;;
41631;SDS011;37452;51.938;4.624;2023-06-24T00:04:45;2.60;;;1.30;;
41631;SDS011;37452;51.938;4.624;2023-06-24T00:07:10;2.63;;;1.50;;
41631;SDS011;37452;51.938;4.624;2023-06-24T00:09:36;2.30;;;1.25;;
41631;SDS011;37452;51.938;4.624;2023-06-24T00:12:02;3.67;;;1.40;;
41631;SDS011;37452;51.938;4.624;2023-06-24T00:14:28;4.07;;;1.63;;
41631;SDS011;37452;51.938;4.624;2023-06-24T00:16:54;3.33;;;1.48;;
41631;SDS011;37452;51.938;4.624;2023-06-24T00:19:20;3.78;;;1.23;;
41631;SDS011;37452;51.938;4.624;2023-06-24T00:21:46;3.20;;;1.48;;
41631;SDS011;37452;51.938;4.624;2023-06-24T00:24:16;4.85;;;1.38;;
41631;SDS011;37452;51.938;4.624;2023-06-24T00:26:42;4.82;;;1.70;;
41631;SDS011;37452;51.938;4.624;2023-06-24T00:29:07;4.28;;;1.38;;
41631;SDS011;37452;51.938;4.624;2023-06-24T00:31:33;2.88;;;1.48;;
41631;SDS011;37452;51.938;4.624;2023-06-24T00:33:58;2.63;;;1.42;;
41631;SDS011;37452;51.938;4.624;2023-06-24T00:36:24;2.83;;;1.33;;
41631;SDS011;37452;51.938;4.624;2023-06-24T00:38:49;2.80;;;1.40;;
41631;SDS011;37452;51.938;4.624;2023-06-24T00:41:16;3.13;;;1.67;;
41631;SDS011;37452;51.938;4.624;2023-06-24T00:43:43;5.60;;;1.60;;
41631;SDS011;37452;51.938;4.624;2023-06-24T00:46:09;3.72;;;1.67;;
41631;SDS011;37452;51.938;4.624;2023-06-24T00:48:34;4.00;;;1.67;;
41631;SDS011;37452;51.938;4.624;2023-06-24T00:50:59;6.50;;;1.60;;
41631;SDS011;37452;51.938;4.624;2023-06-24T00:53:25;3.47;;;1.50;;
41631;SDS011;37452;51.938;4.624;2023-06-24T00:55:50;3.55;;;1.65;;
41631;SDS011;37452;51.938;4.624;2023-06-24T00:58:17;3.45;;;1.70;;
41631;SDS011;37452;51.938;4.624;2023-06-24T01:00:45;4.55;;;1.80;;
41631;SDS011;37452;51.938;4.624;2023-06-24T01:03:12;6.03;;;1.90;;
41631;SDS011;37452;51.938;4.624;2023-06-24T01:05:38;5.05;;;1.90;;
41631;SDS011;37452;51.938;4.624;2023-06-24T01:08:05;3.38;;;1.73;;
41631;SDS011;37452;51.938;4.624;2023-06-24T01:10:31;5.25;;;1.70;;
41631;SDS011;37452;51.938;4.624;2023-06-24T01:12:57;3.97;;;1.48;;
41631;SDS011;37452;51.938;4.624;2023-06-24T01:15:22;3.33;;;1.60;;
41631;SDS011;37452;51.938;4.624;2023-06-24T01:20:36;3.40;;;1.88;;
41631;SDS011;37452;51.938;4.624;2023-06-24T01:31:27;5.68;;;2.13;;
41631;SDS011;37452;51.938;4.624;2023-06-24T01:36:31;5.32;;;1.90;;
41631;SDS011;37452;51.938;4.624;2023-06-24T01:39:03;4.32;;;2.13;;
41631;SDS011;37452;51.938;4.624;2023-06-24T01:41:34;4.70;;;2.65;;
41631;SDS011;37452;51.938;4.624;2023-06-24T01:44:13;4.82;;;2.33;;
41631;SDS011;37452;51.938;4.624;2023-06-24T01:46:40;4.40;;;2.17;;
41631;SDS011;37452;51.938;4.624;2023-06-24T01:49:07;4.13;;;2.28;;
41631;SDS011;37452;51.938;4.624;2023-06-24T01:51:36;5.75;;;2.03;;
41631;SDS011;37452;51.938;4.624;2023-06-24T01:54:06;4.63;;;2.05;;
41631;SDS011;37452;51.938;4.624;2023-06-24T01:56:33;5.20;;;2.47;;
41631;SDS011;37452;51.938;4.624;2023-06-24T01:59:02;3.63;;;1.88;;
41631;SDS011;37452;51.938;4.624;2023-06-24T02:01:29;5.82;;;2.33;;
41631;SDS011;37452;51.938;4.624;2023-06-24T02:03:57;5.32;;;2.03;;
41631;SDS011;37452;51.938;4.624;2023-06-24T02:06:25;5.53;;;2.25;;
41631;SDS011;37452;51.938;4.624;2023-06-24T02:08:53;3.80;;;2.08;;
41631;SDS011;37452;51.938;4.624;2023-06-24T02:11:21;4.05;;;2.30;;
41631;SDS011;37452;51.938;4.624;2023-06-24T02:13:48;3.53;;;2.10;;
41631;SDS011;37452;51.938;4.624;2023-06-24T02:16:16;5.85;;;2.15;;
41631;SDS011;37452;51.938;4.624;2023-06-24T02:18:42;4.70;;;2.50;;
41631;SDS011;37452;51.938;4.624;2023-06-24T02:21:09;4.53;;;2.00;;
41631;SDS011;37452;51.938;4.624;2023-06-24T02:23:35;6.65;;;2.28;;
41631;SDS011;37452;51.938;4.624;2023-06-24T02:26:02;3.47;;;2.30;;
41631;SDS011;37452;51.938;4.624;2023-06-24T02:28:29;5.97;;;2.45;;
41631;SDS011;37452;51.938;4.624;2023-06-24T02:30:56;7.82;;;2.53;;
41631;SDS011;37452;51.938;4.624;2023-06-24T02:33:23;4.18;;;2.25;;
41631;SDS011;37452;51.938;4.624;2023-06-24T02:35:48;5.32;;;2.70;;
41631;SDS011;37452;51.938;4.624;2023-06-24T02:38:14;8.63;;;2.60;;
41631;SDS011;37452;51.938;4.624;2023-06-24T02:40:39;4.68;;;2.40;;
41631;SDS011;37452;51.938;4.624;2023-06-24T02:43:05;5.95;;;2.47;;
41631;SDS011;37452;51.938;4.624;2023-06-24T02:45:30;4.50;;;2.35;;
41631;SDS011;37452;51.938;4.624;2023-06-24T02:47:56;5.72;;;2.60;;
41631;SDS011;37452;51.938;4.624;2023-06-24T02:50:22;5.75;;;2.45;;
41631;SDS011;37452;51.938;4.624;2023-06-24T02:52:49;4.10;;;2.70;;
41631;SDS011;37452;51.938;4.624;2023-06-24T02:55:16;5.38;;;3.05;;
41631;SDS011;37452;51.938;4.624;2023-06-24T02:57:42;4.95;;;2.70;;
41631;SDS011;37452;51.938;4.624;2023-06-24T03:00:09;5.60;;;2.60;;
41631;SDS011;37452;51.938;4.624;2023-06-24T03:02:37;5.13;;;2.75;;
41631;SDS011;37452;51.938;4.624;2023-06-24T03:05:03;6.93;;;2.83;;
41631;SDS011;37452;51.938;4.624;2023-06-24T03:07:29;6.57;;;3.17;;
41631;SDS011;37452;51.938;4.624;2023-06-24T03:09:55;4.47;;;2.35;;
41631;SDS011;37452;51.938;4.624;2023-06-24T03:12:23;7.07;;;3.03;;
41631;SDS011;37452;51.938;4.624;2023-06-24T03:14:48;6.88;;;2.97;;
41631;SDS011;37452;51.938;4.624;2023-06-24T03:17:13;6.97;;;2.60;;
41631;SDS011;37452;51.938;4.624;2023-06-24T03:19:39;5.15;;;2.90;;
41631;SDS011;37452;51.938;4.624;2023-06-24T03:22:04;5.18;;;2.70;;
41631;SDS011;37452;51.938;4.624;2023-06-24T03:24:30;8.57;;;3.50;;
41631;SDS011;37452;51.938;4.624;2023-06-24T03:26:55;5.15;;;2.58;;
41631;SDS011;37452;51.938;4.624;2023-06-24T03:29:22;6.25;;;2.90;;
41631;SDS011;37452;51.938;4.624;2023-06-24T03:31:48;7.03;;;3.30;;
41631;SDS011;37452;51.938;4.624;2023-06-24T03:34:13;4.72;;;2.67;;
41631;SDS011;37452;51.938;4.624;2023-06-24T03:36:38;5.53;;;3.13;;
41631;SDS011;37452;51.938;4.624;2023-06-24T03:39:04;4.53;;;2.58;;
41631;SDS011;37452;51.938;4.624;2023-06-24T03:41:30;7.57;;;3.17;;
41631;SDS011;37452;51.938;4.624;2023-06-24T03:43:55;4.88;;;2.58;;
41631;SDS011;37452;51.938;4.624;2023-06-24T03:46:21;5.18;;;2.35;;
41631;SDS011;37452;51.938;4.624;2023-06-24T03:48:47;11.57;;;2.97;;
41631;SDS011;37452;51.938;4.624;2023-06-24T03:51:12;4.97;;;2.63;;
41631;SDS011;37452;51.938;4.624;2023-06-24T03:53:37;7.38;;;2.83;;
41631;SDS011;37452;51.938;4.624;2023-06-24T03:56:03;5.60;;;2.97;;
41631;SDS011;37452;51.938;4.624;2023-06-24T03:58:29;5.05;;;2.55;;
41631;SDS011;37452;51.938;4.624;2023-06-24T04:00:54;5.95;;;3.47;;
41631;SDS011;37452;51.938;4.624;2023-06-24T04:03:21;4.93;;;2.70;;
41631;SDS011;37452;51.938;4.624;2023-06-24T04:05:47;6.53;;;3.78;;
41631;SDS011;37452;51.938;4.624;2023-06-24T04:08:12;6.07;;;3.08;;
41631;SDS011;37452;51.938;4.624;2023-06-24T04:10:38;5.50;;;2.70;;
41631;SDS011;37452;51.938;4.624;2023-06-24T04:13:03;5.95;;;3.22;;
41631;SDS011;37452;51.938;4.624;2023-06-24T04:15:29;4.65;;;2.63;;
41631;SDS011;37452;51.938;4.624;2023-06-24T04:17:54;5.85;;;2.88;;
41631;SDS011;37452;51.938;4.624;2023-06-24T04:20:19;6.32;;;2.75;;
41631;SDS011;37452;51.938;4.624;2023-06-24T04:22:45;4.68;;;2.90;;
41631;SDS011;37452;51.938;4.624;2023-06-24T04:25:10;5.63;;;2.88;;
41631;SDS011;37452;51.938;4.624;2023-06-24T04:27:36;6.93;;;2.83;;
41631;SDS011;37452;51.938;4.624;2023-06-24T04:30:02;5.90;;;2.55;;
41631;SDS011;37452;51.938;4.624;2023-06-24T04:32:28;6.43;;;2.67;;
41631;SDS011;37452;51.938;4.624;2023-06-24T04:34:53;6.32;;;2.90;;
41631;SDS011;37452;51.938;4.624;2023-06-24T04:37:19;6.38;;;2.70;;
41631;SDS011;37452;51.938;4.624;2023-06-24T04:39:44;7.40;;;3.08;;
41631;SDS011;37452;51.938;4.624;2023-06-24T04:42:10;5.97;;;2.60;;
41631;SDS011;37452;51.938;4.624;2023-06-24T04:44:36;6.35;;;3.22;;
41631;SDS011;37452;51.938;4.624;2023-06-24T04:47:02;4.75;;;3.20;;
41631;SDS011;37452;51.938;4.624;2023-06-24T04:49:27;4.65;;;2.97;;
41631;SDS011;37452;51.938;4.624;2023-06-24T04:51:53;6.07;;;3.20;;
41631;SDS011;37452;51.938;4.624;2023-06-24T04:54:18;5.70;;;3.05;;
41631;SDS011;37452;51.938;4.624;2023-06-24T04:56:43;6.20;;;2.95;;
41631;SDS011;37452;51.938;4.624;2023-06-24T04:59:10;6.80;;;3.30;;
41631;SDS011;37452;51.938;4.624;2023-06-24T05:01:35;8.18;;;3.10;;
41631;SDS011;37452;51.938;4.624;2023-06-24T05:04:01;6.50;;;3.05;;
41631;SDS011;37452;51.938;4.624;2023-06-24T05:06:26;6.22;;;3.10;;
41631;SDS011;37452;51.938;4.624;2023-06-24T05:08:52;6.43;;;3.30;;
41631;SDS011;37452;51.938;4.624;2023-06-24T05:11:17;8.30;;;3.28;;
41631;SDS011;37452;51.938;4.624;2023-06-24T05:13:42;5.53;;;3.20;;
41631;SDS011;37452;51.938;4.624;2023-06-24T05:16:08;6.65;;;3.15;;
41631;SDS011;37452;51.938;4.624;2023-06-24T05:18:33;7.10;;;3.17;;
41631;SDS011;37452;51.938;4.624;2023-06-24T05:20:58;6.97;;;3.28;;
41631;SDS011;37452;51.938;4.624;2023-06-24T05:23:24;7.63;;;3.58;;
41631;SDS011;37452;51.938;4.624;2023-06-24T05:25:49;5.47;;;3.42;;
41631;SDS011;37452;51.938;4.624;2023-06-24T05:28:14;6.57;;;3.65;;
41631;SDS011;37452;51.938;4.624;2023-06-24T05:30:40;8.88;;;4.43;;
41631;SDS011;37452;51.938;4.624;2023-06-24T05:33:06;7.20;;;3.72;;
41631;SDS011;37452;51.938;4.624;2023-06-24T05:35:32;6.60;;;3.85;;
41631;SDS011;37452;51.938;4.624;2023-06-24T05:37:58;8.45;;;3.45;;
41631;SDS011;37452;51.938;4.624;2023-06-24T05:40:23;10.15;;;4.00;;
41631;SDS011;37452;51.938;4.624;2023-06-24T05:42:49;7.75;;;3.92;;
41631;SDS011;37452;51.938;4.624;2023-06-24T05:45:14;8.15;;;4.40;;
41631;SDS011;37452;51.938;4.624;2023-06-24T05:47:39;7.47;;;3.65;;
41631;SDS011;37452;51.938;4.624;2023-06-24T05:50:05;5.88;;;4.03;;
41631;SDS011;37452;51.938;4.624;2023-06-24T05:52:31;7.93;;;4.18;;
41631;SDS011;37452;51.938;4.624;2023-06-24T05:54:56;6.38;;;3.70;;
41631;SDS011;37452;51.938;4.624;2023-06-24T05:57:21;7.55;;;3.65;;
41631;SDS011;37452;51.938;4.624;2023-06-24T05:59:47;7.40;;;4.47;;
41631;SDS011;37452;51.938;4.624;2023-06-24T06:02:12;8.10;;;4.03;;
41631;SDS011;37452;51.938;4.624;2023-06-24T06:04:38;9.90;;;3.83;;
41631;SDS011;37452;51.938;4.624;2023-06-24T06:07:04;9.23;;;4.45;;
41631;SDS011;37452;51.938;4.624;2023-06-24T06:09:29;6.88;;;4.00;;
41631;SDS011;37452;51.938;4.624;2023-06-24T06:11:54;7.45;;;4.70;;
41631;SDS011;37452;51.938;4.624;2023-06-24T06:14:20;6.95;;;4.25;;
41631;SDS011;37452;51.938;4.624;2023-06-24T06:16:45;6.72;;;4.18;;
41631;SDS011;37452;51.938;4.624;2023-06-24T06:19:11;8.55;;;4.38;;
41631;SDS011;37452;51.938;4.624;2023-06-24T06:21:36;8.32;;;4.75;;
41631;SDS011;37452;51.938;4.624;2023-06-24T06:24:02;13.57;;;5.20;;
41631;SDS011;37452;51.938;4.624;2023-06-24T06:26:28;9.43;;;4.18;;
41631;SDS011;37452;51.938;4.624;2023-06-24T06:28:53;8.85;;;4.28;;
41631;SDS011;37452;51.938;4.624;2023-06-24T06:31:19;7.90;;;4.22;;
41631;SDS011;37452;51.938;4.624;2023-06-24T06:33:44;7.18;;;4.22;;
41631;SDS011;37452;51.938;4.624;2023-06-24T06:36:09;6.93;;;4.43;;
41631;SDS011;37452;51.938;4.624;2023-06-24T06:38:35;7.30;;;3.92;;
41631;SDS011;37452;51.938;4.624;2023-06-24T06:41:00;5.47;;;3.75;;
41631;SDS011;37452;51.938;4.624;2023-06-24T06:43:26;7.05;;;4.20;;
41631;SDS011;37452;51.938;4.624;2023-06-24T06:45:51;8.50;;;4.40;;
41631;SDS011;37452;51.938;4.624;2023-06-24T06:48:17;9.50;;;5.22;;
41631;SDS011;37452;51.938;4.624;2023-06-24T06:50:44;9.15;;;4.32;;
41631;SDS011;37452;51.938;4.624;2023-06-24T06:53:10;7.45;;;4.47;;
41631;SDS011;37452;51.938;4.624;2023-06-24T06:55:35;9.13;;;4.25;;
41631;SDS011;37452;51.938;4.624;2023-06-24T06:58:02;8.73;;;4.35;;
41631;SDS011;37452;51.938;4.624;2023-06-24T07:00:27;8.93;;;4.60;;
41631;SDS011;37452;51.938;4.624;2023-06-24T07:02:52;6.45;;;3.90;;
41631;SDS011;37452;51.938;4.624;2023-06-24T07:05:18;9.32;;;4.75;;
41631;SDS011;37452;51.938;4.624;2023-06-24T07:07:43;9.85;;;4.85;;
41631;SDS011;37452;51.938;4.624;2023-06-24T07:10:10;7.03;;;4.18;;
41631;SDS011;37452;51.938;4.624;2023-06-24T07:12:35;8.00;;;4.40;;
41631;SDS011;37452;51.938;4.624;2023-06-24T07:15:01;7.47;;;4.85;;
41631;SDS011;37452;51.938;4.624;2023-06-24T07:17:26;8.15;;;4.00;;
41631;SDS011;37452;51.938;4.624;2023-06-24T07:19:52;7.55;;;5.07;;
41631;SDS011;37452;51.938;4.624;2023-06-24T07:22:17;6.68;;;3.97;;
41631;SDS011;37452;51.938;4.624;2023-06-24T07:24:42;8.88;;;4.47;;
41631;SDS011;37452;51.938;4.624;2023-06-24T07:27:08;8.15;;;4.38;;
41631;SDS011;37452;51.938;4.624;2023-06-24T07:29:33;6.82;;;4.25;;
41631;SDS011;37452;51.938;4.624;2023-06-24T07:31:58;8.20;;;4.90;;
41631;SDS011;37452;51.938;4.624;2023-06-24T07:34:24;6.50;;;4.00;;
41631;SDS011;37452;51.938;4.624;2023-06-24T07:36:49;7.15;;;4.03;;
41631;SDS011;37452;51.938;4.624;2023-06-24T07:39:15;7.13;;;4.22;;
41631;SDS011;37452;51.938;4.624;2023-06-24T07:41:41;7.63;;;3.97;;
41631;SDS011;37452;51.938;4.624;2023-06-24T07:44:07;6.80;;;3.90;;
41631;SDS011;37452;51.938;4.624;2023-06-24T07:46:33;7.85;;;3.97;;
41631;SDS011;37452;51.938;4.624;2023-06-24T07:48:58;6.65;;;3.97;;
41631;SDS011;37452;51.938;4.624;2023-06-24T07:51:23;10.05;;;4.57;;
41631;SDS011;37452;51.938;4.624;2023-06-24T07:53:49;6.93;;;4.20;;
41631;SDS011;37452;51.938;4.624;2023-06-24T07:56:14;9.25;;;4.35;;
41631;SDS011;37452;51.938;4.624;2023-06-24T07:58:39;10.02;;;4.53;;
41631;SDS011;37452;51.938;4.624;2023-06-24T08:01:05;7.20;;;3.88;;
41631;SDS011;37452;51.938;4.624;2023-06-24T08:03:31;10.73;;;4.28;;
41631;SDS011;37452;51.938;4.624;2023-06-24T08:05:56;7.05;;;4.20;;
41631;SDS011;37452;51.938;4.624;2023-06-24T08:08:21;6.22;;;3.97;;
41631;SDS011;37452;51.938;4.624;2023-06-24T08:10:47;9.02;;;4.00;;
41631;SDS011;37452;51.938;4.624;2023-06-24T08:13:13;6.63;;;3.72;;
41631;SDS011;37452;51.938;4.624;2023-06-24T08:15:38;6.72;;;4.28;;
41631;SDS011;37452;51.938;4.624;2023-06-24T08:18:04;7.43;;;4.57;;
41631;SDS011;37452;51.938;4.624;2023-06-24T08:20:29;9.07;;;5.25;;
41631;SDS011;37452;51.938;4.624;2023-06-24T08:22:54;7.70;;;5.00;;
41631;SDS011;37452;51.938;4.624;2023-06-24T08:25:20;9.48;;;5.03;;
41631;SDS011;37452;51.938;4.624;2023-06-24T08:27:45;9.63;;;4.82;;
41631;SDS011;37452;51.938;4.624;2023-06-24T08:30:12;9.80;;;4.93;;
41631;SDS011;37452;51.938;4.624;2023-06-24T08:32:39;12.77;;;5.60;;
41631;SDS011;37452;51.938;4.624;2023-06-24T08:35:05;8.27;;;4.88;;
41631;SDS011;37452;51.938;4.624;2023-06-24T08:37:31;9.55;;;5.03;;
41631;SDS011;37452;51.938;4.624;2023-06-24T08:39:57;8.13;;;4.93;;
41631;SDS011;37452;51.938;4.624;2023-06-24T08:42:22;10.70;;;5.43;;
41631;SDS011;37452;51.938;4.624;2023-06-24T08:44:47;8.82;;;4.90;;
41631;SDS011;37452;51.938;4.624;2023-06-24T08:47:13;11.10;;;5.72;;
41631;SDS011;37452;51.938;4.624;2023-06-24T08:49:46;9.70;;;5.75;;
41631;SDS011;37452;51.938;4.624;2023-06-24T08:52:14;8.95;;;5.95;;
41631;SDS011;37452;51.938;4.624;2023-06-24T08:54:43;11.25;;;6.13;;
41631;SDS011;37452;51.938;4.624;2023-06-24T08:57:13;9.40;;;5.13;;
41631;SDS011;37452;51.938;4.624;2023-06-24T08:59:43;9.70;;;5.28;;
41631;SDS011;37452;51.938;4.624;2023-06-24T09:02:09;7.68;;;4.80;;
41631;SDS011;37452;51.938;4.624;2023-06-24T09:04:36;9.10;;;5.65;;
41631;SDS011;37452;51.938;4.624;2023-06-24T09:07:01;12.30;;;5.03;;
41631;SDS011;37452;51.938;4.624;2023-06-24T09:09:27;8.85;;;5.45;;
41631;SDS011;37452;51.938;4.624;2023-06-24T09:11:58;10.65;;;5.13;;
41631;SDS011;37452;51.938;4.624;2023-06-24T09:14:25;9.20;;;5.53;;
41631;SDS011;37452;51.938;4.624;2023-06-24T09:16:57;10.02;;;5.15;;
41631;SDS011;37452;51.938;4.624;2023-06-24T09:19:26;9.63;;;5.95;;
41631;SDS011;37452;51.938;4.624;2023-06-24T09:22:01;9.25;;;5.45;;
41631;SDS011;37452;51.938;4.624;2023-06-24T09:24:30;6.72;;;4.88;;
41631;SDS011;37452;51.938;4.624;2023-06-24T09:26:56;7.68;;;4.45;;
41631;SDS011;37452;51.938;4.624;2023-06-24T09:29:25;9.80;;;5.22;;
41631;SDS011;37452;51.938;4.624;2023-06-24T09:31:52;12.32;;;5.70;;
41631;SDS011;37452;51.938;4.624;2023-06-24T09:34:18;10.98;;;5.07;;
41631;SDS011;37452;51.938;4.624;2023-06-24T09:36:44;10.90;;;5.45;;
41631;SDS011;37452;51.938;4.624;2023-06-24T09:39:11;7.50;;;4.93;;
41631;SDS011;37452;51.938;4.624;2023-06-24T09:41:39;8.93;;;5.30;;
41631;SDS011;37452;51.938;4.624;2023-06-24T09:44:07;12.40;;;6.00;;
41631;SDS011;37452;51.938;4.624;2023-06-24T09:46:36;8.70;;;5.10;;
41631;SDS011;37452;51.938;4.624;2023-06-24T09:49:05;8.90;;;4.85;;
41631;SDS011;37452;51.938;4.624;2023-06-24T09:51:38;9.40;;;4.90;;
41631;SDS011;37452;51.938;4.624;2023-06-24T09:54:05;8.15;;;5.20;;
41631;SDS011;37452;51.938;4.624;2023-06-24T09:56:32;10.18;;;5.57;;
41631;SDS011;37452;51.938;4.624;2023-06-24T09:59:01;8.95;;;5.50;;
41631;SDS011;37452;51.938;4.624;2023-06-24T10:01:28;9.07;;;5.20;;
41631;SDS011;37452;51.938;4.624;2023-06-24T10:03:54;8.90;;;5.07;;
41631;SDS011;37452;51.938;4.624;2023-06-24T10:06:20;10.48;;;5.78;;
41631;SDS011;37452;51.938;4.624;2023-06-24T10:08:45;9.35;;;5.57;;
41631;SDS011;37452;51.938;4.624;2023-06-24T10:11:10;11.40;;;5.70;;
41631;SDS011;37452;51.938;4.624;2023-06-24T10:13:36;8.07;;;5.07;;
41631;SDS011;37452;51.938;4.624;2023-06-24T10:16:01;8.55;;;5.18;;
41631;SDS011;37452;51.938;4.624;2023-06-24T10:18:31;9.40;;;5.00;;
41631;SDS011;37452;51.938;4.624;2023-06-24T10:20:59;11.55;;;5.03;;
41631;SDS011;37452;51.938;4.624;2023-06-24T10:23:58;7.30;;;4.22;;
41631;SDS011;37452;51.938;4.624;2023-06-24T10:42:32;8.07;;;4.43;;
41631;SDS011;37452;51.938;4.624;2023-06-24T10:47:35;8.82;;;4.97;;
41631;SDS011;37452;51.938;4.624;2023-06-24T10:50:03;8.88;;;4.82;;
41631;SDS011;37452;51.938;4.624;2023-06-24T10:52:34;8.45;;;4.78;;
41631;SDS011;37452;51.938;4.624;2023-06-24T10:55:03;11.52;;;4.22;;
41631;SDS011;37452;51.938;4.624;2023-06-24T10:57:29;12.48;;;4.30;;
41631;SDS011;37452;51.938;4.624;2023-06-24T10:59:55;9.13;;;5.43;;
41631;SDS011;37452;51.938;4.624;2023-06-24T11:02:23;9.80;;;4.75;;
41631;SDS011;37452;51.938;4.624;2023-06-24T11:04:50;7.03;;;4.07;;
41631;SDS011;37452;51.938;4.624;2023-06-24T11:07:22;7.47;;;4.68;;
41631;SDS011;37452;51.938;4.624;2023-06-24T11:09:52;11.40;;;4.28;;
41631;SDS011;37452;51.938;4.624;2023-06-24T11:12:19;8.93;;;5.35;;
41631;SDS011;37452;51.938;4.624;2023-06-24T11:14:49;5.93;;;3.78;;
41631;SDS011;37452;51.938;4.624;2023-06-24T11:17:15;9.63;;;4.60;;
41631;SDS011;37452;51.938;4.624;2023-06-24T11:19:40;7.28;;;3.85;;
41631;SDS011;37452;51.938;4.624;2023-06-24T11:22:06;7.90;;;4.03;;
41631;SDS011;37452;51.938;4.624;2023-06-24T11:24:33;6.00;;;3.83;;
41631;SDS011;37452;51.938;4.624;2023-06-24T11:26:59;7.35;;;3.83;;
41631;SDS011;37452;51.938;4.624;2023-06-24T11:29:24;5.47;;;3.83;;
41631;SDS011;37452;51.938;4.624;2023-06-24T11:31:54;5.32;;;3.20;;
41631;SDS011;37452;51.938;4.624;2023-06-24T11:34:19;4.80;;;3.47;;
41631;SDS011;37452;51.938;4.624;2023-06-24T11:36:46;5.95;;;2.88;;
41631;SDS011;37452;51.938;4.624;2023-06-24T11:41:52;7.13;;;4.13;;
41631;SDS011;37452;51.938;4.624;2023-06-24T11:44:21;5.90;;;3.63;;
41631;SDS011;37452;51.938;4.624;2023-06-24T11:46:49;4.95;;;2.85;;
41631;SDS011;37452;51.938;4.624;2023-06-24T11:49:14;4.57;;;2.53;;
41631;SDS011;37452;51.938;4.624;2023-06-24T11:51:46;4.80;;;2.30;;
41631;SDS011;37452;51.938;4.624;2023-06-24T11:54:19;6.85;;;3.63;;
41631;SDS011;37452;51.938;4.624;2023-06-24T11:56:49;5.70;;;3.25;;
41631;SDS011;37452;51.938;4.624;2023-06-24T12:02:05;5.82;;;3.80;;
41631;SDS011;37452;51.938;4.624;2023-06-24T12:04:30;10.77;;;4.25;;
41631;SDS011;37452;51.938;4.624;2023-06-24T12:06:56;6.60;;;3.25;;
41631;SDS011;37452;51.938;4.624;2023-06-24T12:09:22;6.32;;;3.88;;
41631;SDS011;37452;51.938;4.624;2023-06-24T12:11:48;9.15;;;4.20;;
41631;SDS011;37452;51.938;4.624;2023-06-24T12:14:13;6.82;;;3.65;;
41631;SDS011;37452;51.938;4.624;2023-06-24T12:16:39;7.15;;;3.17;;
41631;SDS011;37452;51.938;4.624;2023-06-24T12:19:06;5.75;;;3.28;;
41631;SDS011;37452;51.938;4.624;2023-06-24T12:21:32;6.18;;;3.30;;
41631;SDS011;37452;51.938;4.624;2023-06-24T12:23:57;7.55;;;4.13;;
41631;SDS011;37452;51.938;4.624;2023-06-24T12:26:23;7.30;;;4.20;;
41631;SDS011;37452;51.938;4.624;2023-06-24T12:28:48;6.40;;;4.03;;
41631;SDS011;37452;51.938;4.624;2023-06-24T12:31:14;10.75;;;4.50;;
41631;SDS011;37452;51.938;4.624;2023-06-24T12:33:39;7.15;;;3.70;;
41631;SDS011;37452;51.938;4.624;2023-06-24T12:36:04;5.93;;;3.47;;
41631;SDS011;37452;51.938;4.624;2023-06-24T12:38:30;8.85;;;3.70;;
41631;SDS011;37452;51.938;4.624;2023-06-24T12:40:56;7.32;;;4.50;;
41631;SDS011;37452;51.938;4.624;2023-06-24T12:43:22;8.48;;;4.28;;
41631;SDS011;37452;51.938;4.624;2023-06-24T12:45:47;12.43;;;4.85;;
41631;SDS011;37452;51.938;4.624;2023-06-24T12:48:13;9.15;;;5.22;;
41631;SDS011;37452;51.938;4.624;2023-06-24T12:50:38;6.50;;;4.00;;
41631;SDS011;37452;51.938;4.624;2023-06-24T12:53:04;7.40;;;4.38;;
41631;SDS011;37452;51.938;4.624;2023-06-24T12:55:29;9.60;;;4.32;;
41631;SDS011;37452;51.938;4.624;2023-06-24T12:57:55;5.10;;;3.42;;
41631;SDS011;37452;51.938;4.624;2023-06-24T13:00:21;9.27;;;4.68;;
41631;SDS011;37452;51.938;4.624;2023-06-24T13:02:48;6.95;;;4.10;;
41631;SDS011;37452;51.938;4.624;2023-06-24T13:05:14;8.15;;;3.95;;
41631;SDS011;37452;51.938;4.624;2023-06-24T13:07:40;8.57;;;4.45;;
41631;SDS011;37452;51.938;4.624;2023-06-24T13:10:05;5.82;;;3.42;;
41631;SDS011;37452;51.938;4.624;2023-06-24T13:12:31;6.07;;;3.63;;
41631;SDS011;37452;51.938;4.624;2023-06-24T13:14:57;5.18;;;2.95;;
41631;SDS011;37452;51.938;4.624;2023-06-24T13:17:23;8.52;;;4.40;;
41631;SDS011;37452;51.938;4.624;2023-06-24T13:19:49;8.70;;;4.10;;
41631;SDS011;37452;51.938;4.624;2023-06-24T13:22:15;7.63;;;4.13;;
41631;SDS011;37452;51.938;4.624;2023-06-24T13:24:40;6.22;;;3.67;;
41631;SDS011;37452;51.938;4.624;2023-06-24T13:27:05;6.10;;;3.67;;
41631;SDS011;37452;51.938;4.624;2023-06-24T13:29:31;8.63;;;4.22;;
41631;SDS011;37452;51.938;4.624;2023-06-24T13:31:56;7.13;;;3.95;;
41631;SDS011;37452;51.938;4.624;2023-06-24T13:34:22;6.28;;;4.10;;
41631;SDS011;37452;51.938;4.624;2023-06-24T13:36:47;7.85;;;4.05;;
41631;SDS011;37452;51.938;4.624;2023-06-24T13:39:12;10.32;;;5.05;;
41631;SDS011;37452;51.938;4.624;2023-06-24T13:41:41;9.68;;;4.40;;
41631;SDS011;37452;51.938;4.624;2023-06-24T13:44:07;8.20;;;3.97;;
41631;SDS011;37452;51.938;4.624;2023-06-24T13:46:33;6.63;;;4.28;;
41631;SDS011;37452;51.938;4.624;2023-06-24T13:48:59;8.55;;;3.67;;
41631;SDS011;37452;51.938;4.624;2023-06-24T13:51:24;7.00;;;4.10;;
41631;SDS011;37452;51.938;4.624;2023-06-24T13:53:51;6.85;;;4.20;;
41631;SDS011;37452;51.938;4.624;2023-06-24T13:56:20;6.97;;;4.10;;
41631;SDS011;37452;51.938;4.624;2023-06-24T13:58:47;7.38;;;4.00;;
41631;SDS011;37452;51.938;4.624;2023-06-24T14:01:13;7.03;;;3.55;;
41631;SDS011;37452;51.938;4.624;2023-06-24T14:03:39;6.35;;;3.58;;
41631;SDS011;37452;51.938;4.624;2023-06-24T14:06:05;4.65;;;3.17;;
41631;SDS011;37452;51.938;4.624;2023-06-24T14:08:31;7.53;;;3.47;;
41631;SDS011;37452;51.938;4.624;2023-06-24T14:10:59;5.22;;;3.58;;
41631;SDS011;37452;51.938;4.624;2023-06-24T14:13:26;6.45;;;4.00;;
41631;SDS011;37452;51.938;4.624;2023-06-24T14:15:52;6.85;;;3.60;;
41631;SDS011;37452;51.938;4.624;2023-06-24T14:18:18;5.82;;;3.40;;
41631;SDS011;37452;51.938;4.624;2023-06-24T14:20:43;6.32;;;3.53;;
41631;SDS011;37452;51.938;4.624;2023-06-24T14:23:09;5.93;;;3.60;;
41631;SDS011;37452;51.938;4.624;2023-06-24T14:25:34;6.38;;;3.90;;
41631;SDS011;37452;51.938;4.624;2023-06-24T14:28:02;5.97;;;3.88;;
41631;SDS011;37452;51.938;4.624;2023-06-24T14:30:28;11.88;;;3.55;;
41631;SDS011;37452;51.938;4.624;2023-06-24T14:32:54;6.45;;;3.55;;
41631;SDS011;37452;51.938;4.624;2023-06-24T14:35:19;5.57;;;3.33;;
41631;SDS011;37452;51.938;4.624;2023-06-24T14:37:44;5.97;;;3.25;;
41631;SDS011;37452;51.938;4.624;2023-06-24T14:40:10;5.20;;;3.35;;
41631;SDS011;37452;51.938;4.624;2023-06-24T14:42:35;6.65;;;3.35;;
41631;SDS011;37452;51.938;4.624;2023-06-24T14:45:01;5.07;;;2.97;;
41631;SDS011;37452;51.938;4.624;2023-06-24T14:47:26;5.75;;;2.90;;
41631;SDS011;37452;51.938;4.624;2023-06-24T14:49:52;5.05;;;2.75;;
41631;SDS011;37452;51.938;4.624;2023-06-24T14:52:18;5.35;;;2.97;;
41631;SDS011;37452;51.938;4.624;2023-06-24T14:54:43;6.15;;;3.45;;
41631;SDS011;37452;51.938;4.624;2023-06-24T14:57:08;6.20;;;3.55;;
41631;SDS011;37452;51.938;4.624;2023-06-24T14:59:34;5.53;;;2.92;;
41631;SDS011;37452;51.938;4.624;2023-06-24T15:01:59;6.47;;;2.95;;
41631;SDS011;37452;51.938;4.624;2023-06-24T15:04:24;6.28;;;3.17;;
41631;SDS011;37452;51.938;4.624;2023-06-24T15:06:50;5.20;;;3.03;;
41631;SDS011;37452;51.938;4.624;2023-06-24T15:09:15;4.32;;;2.65;;
41631;SDS011;37452;51.938;4.624;2023-06-24T15:11:41;3.95;;;2.50;;
41631;SDS011;37452;51.938;4.624;2023-06-24T15:14:06;7.68;;;2.90;;
41631;SDS011;37452;51.938;4.624;2023-06-24T15:16:32;4.85;;;2.78;;
41631;SDS011;37452;51.938;4.624;2023-06-24T15:18:57;5.13;;;2.88;;